createdAt,value
2019-06-15T00:00:00.676Z,16
2019-06-15T00:03:00.682Z,17
2019-06-15T00:06:00.679Z,16
2019-06-15T00:07:00.678Z,17
2019-06-15T00:08:00.683Z,18
2019-06-15T00:09:00.678Z,17
2019-06-15T00:11:00.677Z,18
2019-06-15T00:12:00.676Z,17
2019-06-15T00:13:00.680Z,16
2019-06-15T00:15:00.677Z,16
2019-06-15T00:16:00.676Z,15
2019-06-15T00:17:00.684Z,14
2019-06-15T00:18:00.679Z,17
2019-06-15T00:19:00.684Z,16
2019-06-15T00:20:00.716Z,15
2019-06-15T00:21:00.679Z,16
2019-06-15T00:22:00.681Z,17
2019-06-15T00:23:00.743Z,16
2019-06-15T00:25:00.679Z,17
2019-06-15T00:26:00.682Z,16
2019-06-15T00:27:00.676Z,14
2019-06-15T00:28:00.680Z,13
2019-06-15T00:29:00.680Z,12
2019-06-15T00:30:00.680Z,12
2019-06-15T00:31:00.678Z,14
2019-06-15T00:32:00.678Z,15
2019-06-15T00:33:00.685Z,17
2019-06-15T00:35:00.682Z,18
2019-06-15T00:36:00.678Z,16
2019-06-15T00:37:00.686Z,15
2019-06-15T00:40:00.678Z,14
2019-06-15T00:41:00.677Z,15
2019-06-15T00:43:00.678Z,17
2019-06-15T00:45:00.686Z,17
2019-06-15T00:47:00.680Z,16
2019-06-15T00:48:00.680Z,15
2019-06-15T00:50:00.689Z,16
2019-06-15T00:52:00.678Z,18
2019-06-15T00:55:00.679Z,19
2019-06-15T00:56:00.683Z,20
2019-06-15T00:57:00.680Z,19
2019-06-15T00:58:00.681Z,18
2019-06-15T01:00:00.681Z,16
2019-06-15T01:01:00.682Z,15
2019-06-15T01:03:00.693Z,13
2019-06-15T01:04:00.686Z,14
2019-06-15T01:05:00.682Z,15
2019-06-15T01:06:00.682Z,14
2019-06-15T01:08:00.682Z,16
2019-06-15T01:09:00.683Z,14
2019-06-15T01:11:00.682Z,15
2019-06-15T01:12:00.682Z,17
2019-06-15T01:13:00.681Z,19
2019-06-15T01:14:00.682Z,21
2019-06-15T01:15:00.681Z,19
2019-06-15T01:17:00.684Z,18
2019-06-15T01:18:00.680Z,16
2019-06-15T01:19:00.682Z,15
2019-06-15T01:20:00.684Z,17
2019-06-15T01:21:00.683Z,19
2019-06-15T01:22:00.692Z,20
2019-06-15T01:24:00.681Z,18
2019-06-15T01:25:05.365Z,17
2019-06-15T01:26:00.681Z,16
2019-06-15T01:27:00.681Z,13
2019-06-15T01:28:00.681Z,15
2019-06-15T01:29:00.681Z,17
2019-06-15T01:30:00.687Z,16
2019-06-15T01:31:00.699Z,15
2019-06-15T01:32:00.689Z,16
2019-06-15T01:33:00.699Z,14
2019-06-15T01:35:00.682Z,15
2019-06-15T01:37:00.681Z,14
2019-06-15T01:38:00.685Z,16
2019-06-15T01:39:00.681Z,17
2019-06-15T01:42:00.682Z,20
2019-06-15T01:43:00.684Z,17
2019-06-15T01:44:00.683Z,16
2019-06-15T01:45:00.691Z,13
2019-06-15T01:46:00.683Z,15
2019-06-15T01:47:00.684Z,14
2019-06-15T01:48:00.682Z,15
2019-06-15T01:50:00.686Z,16
2019-06-15T01:54:00.687Z,17
2019-06-15T01:56:00.689Z,16
2019-06-15T01:57:00.684Z,17
2019-06-15T01:58:00.683Z,19
2019-06-15T01:59:00.692Z,17
2019-06-15T02:00:00.723Z,17
2019-06-15T02:01:00.683Z,16
2019-06-15T02:02:00.681Z,17
2019-06-15T02:03:00.681Z,15
2019-06-15T02:04:00.686Z,16
2019-06-15T02:05:00.689Z,15
2019-06-15T02:06:00.683Z,16
2019-06-15T02:08:00.683Z,17
2019-06-15T02:10:00.684Z,19
2019-06-15T02:11:00.682Z,20
2019-06-15T02:12:00.680Z,19
2019-06-15T02:13:00.685Z,17
2019-06-15T02:14:00.681Z,19
2019-06-15T02:15:00.681Z,19
2019-06-15T02:17:00.682Z,20
2019-06-15T02:18:00.707Z,22
2019-06-15T02:19:00.682Z,19
2019-06-15T02:20:01.710Z,18
2019-06-15T02:21:00.682Z,17
2019-06-15T02:22:00.685Z,16
2019-06-15T02:23:00.718Z,15
2019-06-15T02:24:00.683Z,17
2019-06-15T02:25:00.684Z,16
2019-06-15T02:26:00.691Z,17
2019-06-15T02:27:00.688Z,18
2019-06-15T02:28:01.738Z,19
2019-06-15T02:29:00.685Z,18
2019-06-15T02:30:00.699Z,18
2019-06-15T02:31:00.683Z,17
2019-06-15T02:32:00.685Z,15
2019-06-15T02:34:00.685Z,14
2019-06-15T02:36:00.690Z,17
2019-06-15T02:38:00.711Z,18
2019-06-15T02:39:00.691Z,20
2019-06-15T02:40:00.691Z,21
2019-06-15T02:41:00.690Z,20
2019-06-15T02:42:00.689Z,19
2019-06-15T02:43:00.720Z,18
2019-06-15T02:45:00.687Z,17
2019-06-15T02:49:00.688Z,16
2019-06-15T02:51:00.878Z,14
2019-06-15T02:52:00.690Z,15
2019-06-15T02:55:00.689Z,16
2019-06-15T02:56:00.694Z,17
2019-06-15T03:00:00.975Z,19
2019-06-15T03:01:00.692Z,18
2019-06-15T03:02:00.694Z,19
2019-06-15T03:04:00.691Z,18
2019-06-15T03:05:00.700Z,17
2019-06-15T03:07:00.692Z,16
2019-06-15T03:08:00.690Z,15
2019-06-15T03:09:00.733Z,16
2019-06-15T03:11:00.694Z,18
2019-06-15T03:12:00.693Z,17
2019-06-15T03:14:00.730Z,16
2019-06-15T03:15:00.690Z,17
2019-06-15T03:17:00.693Z,18
2019-06-15T03:18:00.691Z,20
2019-06-15T03:19:00.724Z,21
2019-06-15T03:21:00.688Z,19
2019-06-15T03:22:00.690Z,20
2019-06-15T03:24:00.735Z,18
2019-06-15T03:25:00.698Z,16
2019-06-15T03:26:05.343Z,18
2019-06-15T03:27:00.792Z,17
2019-06-15T03:28:00.690Z,16
2019-06-15T03:30:00.708Z,17
2019-06-15T03:31:00.692Z,16
2019-06-15T03:32:00.692Z,17
2019-06-15T03:35:00.691Z,18
2019-06-15T03:36:00.696Z,19
2019-06-15T03:37:00.693Z,17
2019-06-15T03:38:00.696Z,16
2019-06-15T03:39:00.694Z,18
2019-06-15T03:40:00.694Z,17
2019-06-15T03:41:00.704Z,15
2019-06-15T03:42:00.693Z,16
2019-06-15T03:43:00.703Z,17
2019-06-15T03:44:00.719Z,16
2019-06-15T03:45:00.693Z,14
2019-06-15T03:46:00.699Z,16
2019-06-15T03:48:00.696Z,17
2019-06-15T03:50:00.694Z,19
2019-06-15T03:51:00.720Z,20
2019-06-15T03:52:00.693Z,19
2019-06-15T03:53:00.693Z,18
2019-06-15T03:56:00.728Z,17
2019-06-15T04:00:00.938Z,17
2019-06-15T04:05:00.697Z,16
2019-06-15T04:06:00.703Z,15
2019-06-15T04:07:00.732Z,17
2019-06-15T04:08:00.695Z,15
2019-06-15T04:10:00.695Z,14
2019-06-15T04:12:00.747Z,13
2019-06-15T04:13:00.695Z,16
2019-06-15T04:15:00.743Z,18
2019-06-15T04:20:00.709Z,17
2019-06-15T04:22:00.698Z,18
2019-06-15T04:23:00.698Z,16
2019-06-15T04:27:00.700Z,15
2019-06-15T04:28:00.700Z,14
2019-06-15T04:30:00.699Z,13
2019-06-15T04:32:00.697Z,14
2019-06-15T04:33:00.700Z,15
2019-06-15T04:34:00.696Z,17
2019-06-15T04:36:00.697Z,18
2019-06-15T04:38:00.714Z,19
2019-06-15T04:39:00.698Z,17
2019-06-15T04:41:01.614Z,16
2019-06-15T04:42:00.729Z,15
2019-06-15T04:43:00.702Z,14
2019-06-15T04:45:00.699Z,16
2019-06-15T04:46:00.701Z,15
2019-06-15T04:47:00.700Z,16
2019-06-15T04:48:00.728Z,15
2019-06-15T04:50:00.709Z,14
2019-06-15T04:51:00.699Z,17
2019-06-15T04:52:00.699Z,15
2019-06-15T04:56:00.779Z,14
2019-06-15T04:57:00.702Z,15
2019-06-15T04:58:00.739Z,16
2019-06-15T04:59:00.708Z,18
2019-06-15T05:00:00.704Z,18
2019-06-15T05:01:00.701Z,17
2019-06-15T05:02:00.847Z,16
2019-06-15T05:03:00.725Z,17
2019-06-15T05:04:00.700Z,16
2019-06-15T05:05:00.703Z,15
2019-06-15T05:06:00.704Z,16
2019-06-15T05:07:00.736Z,18
2019-06-15T05:08:00.702Z,19
2019-06-15T05:10:00.702Z,20
2019-06-15T05:11:02.917Z,19
2019-06-15T05:12:00.736Z,18
2019-06-15T05:13:00.702Z,16
2019-06-15T05:15:00.703Z,16
2019-06-15T05:18:00.710Z,17
2019-06-15T05:20:00.702Z,18
2019-06-15T05:24:00.706Z,19
2019-06-15T05:25:00.704Z,18
2019-06-15T05:27:06.126Z,16
2019-06-15T05:29:00.703Z,15
2019-06-15T05:30:00.707Z,15
2019-06-15T05:32:00.702Z,16
2019-06-15T05:33:00.699Z,17
2019-06-15T05:35:00.701Z,16
2019-06-15T05:37:00.704Z,15
2019-06-15T05:41:00.705Z,16
2019-06-15T05:42:00.700Z,15
2019-06-15T05:43:00.704Z,14
2019-06-15T05:44:00.709Z,15
2019-06-15T05:45:00.709Z,16
2019-06-15T05:46:00.701Z,15
2019-06-15T05:47:00.703Z,17
2019-06-15T05:48:00.736Z,16
2019-06-15T05:49:00.703Z,15
2019-06-15T05:51:00.702Z,16
2019-06-15T05:52:00.703Z,15
2019-06-15T05:53:00.763Z,17
2019-06-15T05:55:00.700Z,18
2019-06-15T05:57:00.703Z,17
2019-06-15T05:58:00.738Z,16
2019-06-15T06:00:00.702Z,16
2019-06-15T06:02:00.709Z,18
2019-06-15T06:03:00.747Z,19
2019-06-15T06:04:00.704Z,18
2019-06-15T06:07:00.766Z,16
2019-06-15T06:10:00.832Z,17
2019-06-15T06:11:00.704Z,15
2019-06-15T06:12:00.708Z,16
2019-06-15T06:13:00.702Z,17
2019-06-15T06:15:00.706Z,17
2019-06-15T06:16:00.704Z,19
2019-06-15T06:18:00.704Z,18
2019-06-15T06:19:00.707Z,17
2019-06-15T06:20:00.705Z,16
2019-06-15T06:21:00.708Z,17
2019-06-15T06:22:00.706Z,16
2019-06-15T06:23:00.706Z,17
2019-06-15T06:24:00.707Z,16
2019-06-15T06:26:00.709Z,15
2019-06-15T06:27:00.708Z,18
2019-06-15T06:30:00.708Z,18
2019-06-15T06:32:00.709Z,16
2019-06-15T06:33:00.710Z,17
2019-06-15T06:34:00.712Z,18
2019-06-15T06:35:00.714Z,19
2019-06-15T06:40:00.712Z,17
2019-06-15T06:41:00.724Z,18
2019-06-15T06:42:00.710Z,16
2019-06-15T06:43:00.709Z,15
2019-06-15T06:45:00.715Z,16
2019-06-15T06:46:00.710Z,15
2019-06-15T06:47:00.711Z,16
2019-06-15T06:48:00.710Z,17
2019-06-15T06:49:00.710Z,16
2019-06-15T06:51:00.712Z,17
2019-06-15T06:54:00.714Z,16
2019-06-15T06:55:00.710Z,15
2019-06-15T06:56:00.720Z,16
2019-06-15T06:57:00.731Z,15
2019-06-15T06:58:00.713Z,14
2019-06-15T06:59:00.714Z,16
2019-06-15T07:00:00.720Z,16
2019-06-15T07:01:00.712Z,15
2019-06-15T07:03:00.711Z,14
2019-06-15T07:08:00.753Z,16
2019-06-15T07:10:00.713Z,15
2019-06-15T07:11:00.712Z,16
2019-06-15T07:13:00.738Z,13
2019-06-15T07:15:00.715Z,15
2019-06-15T07:16:00.714Z,14
2019-06-15T07:17:00.713Z,16
2019-06-15T07:18:00.739Z,18
2019-06-15T07:19:00.711Z,21
2019-06-15T07:20:00.948Z,20
2019-06-15T07:22:00.716Z,19
2019-06-15T07:23:00.749Z,18
2019-06-15T07:24:00.712Z,17
2019-06-15T07:26:00.714Z,16
2019-06-15T07:27:00.713Z,17
2019-06-15T07:30:00.712Z,17
2019-06-15T07:31:00.715Z,19
2019-06-15T07:33:00.717Z,18
2019-06-15T07:34:00.740Z,19
2019-06-15T07:35:00.715Z,18
2019-06-15T07:36:00.718Z,16
2019-06-15T07:37:01.625Z,15
2019-06-15T07:38:00.716Z,16
2019-06-15T07:39:00.771Z,15
2019-06-15T07:40:00.716Z,18
2019-06-15T07:43:00.718Z,17
2019-06-15T07:44:00.751Z,18
2019-06-15T07:45:00.721Z,16
2019-06-15T07:46:00.781Z,17
2019-06-15T07:47:00.718Z,19
2019-06-15T07:48:00.723Z,20
2019-06-15T07:49:00.751Z,18
2019-06-15T07:50:00.717Z,17
2019-06-15T07:51:00.721Z,16
2019-06-15T07:52:00.797Z,14
2019-06-15T07:53:00.721Z,13
2019-06-15T07:54:00.839Z,14
2019-06-15T07:55:00.722Z,15
2019-06-15T07:56:00.719Z,17
2019-06-15T07:57:00.818Z,18
2019-06-15T08:00:00.725Z,19
2019-06-15T08:01:00.722Z,16
2019-06-15T08:03:00.723Z,14
2019-06-15T08:05:00.738Z,15
2019-06-15T08:07:00.723Z,16
2019-06-15T08:09:00.751Z,17
2019-06-15T08:10:00.724Z,14
2019-06-15T08:11:00.732Z,13
2019-06-15T08:12:00.787Z,14
2019-06-15T08:13:00.724Z,15
2019-06-15T08:15:00.723Z,18
2019-06-15T08:16:00.731Z,20
2019-06-15T08:18:00.727Z,22
2019-06-15T08:19:00.727Z,21
2019-06-15T08:21:00.723Z,20
2019-06-15T08:23:00.726Z,17
2019-06-15T08:24:00.730Z,16
2019-06-15T08:26:00.725Z,15
2019-06-15T08:27:00.728Z,16
2019-06-15T08:29:00.725Z,18
2019-06-15T08:30:00.759Z,17
2019-06-15T08:33:00.744Z,18
2019-06-15T08:34:00.730Z,16
2019-06-15T08:35:00.750Z,18
2019-06-15T08:37:00.760Z,17
2019-06-15T08:39:00.726Z,16
2019-06-15T08:41:00.727Z,18
2019-06-15T08:42:00.753Z,20
2019-06-15T08:44:00.730Z,22
2019-06-15T08:45:00.730Z,19
2019-06-15T08:47:00.756Z,18
2019-06-15T08:48:00.732Z,17
2019-06-15T08:50:00.733Z,19
2019-06-15T08:51:00.730Z,17
2019-06-15T08:52:04.037Z,16
2019-06-15T08:53:00.737Z,17
2019-06-15T08:54:00.730Z,16
2019-06-15T08:55:00.884Z,17
2019-06-15T08:56:00.730Z,16
2019-06-15T08:57:00.733Z,17
2019-06-15T08:58:00.731Z,15
2019-06-15T09:00:00.733Z,15
2019-06-15T09:01:00.730Z,17
2019-06-15T09:02:00.740Z,18
2019-06-15T09:03:00.730Z,21
2019-06-15T09:05:00.731Z,20
2019-06-15T09:06:00.730Z,19
2019-06-15T09:07:00.729Z,17
2019-06-15T09:08:00.737Z,15
2019-06-15T09:09:00.729Z,16
2019-06-15T09:11:00.730Z,18
2019-06-15T09:13:00.728Z,17
2019-06-15T09:15:00.736Z,18
2019-06-15T09:16:00.727Z,16
2019-06-15T09:17:00.730Z,17
2019-06-15T09:20:00.734Z,16
2019-06-15T09:22:00.882Z,15
2019-06-15T09:23:00.730Z,16
2019-06-15T09:24:00.729Z,15
2019-06-15T09:25:00.764Z,14
2019-06-15T09:29:10.560Z,16
2019-06-15T09:30:00.766Z,16
2019-06-15T09:31:00.734Z,18
2019-06-15T09:32:00.732Z,16
2019-06-15T09:34:00.732Z,17
2019-06-15T09:35:00.766Z,19
2019-06-15T09:36:00.738Z,17
2019-06-15T09:37:00.735Z,21
2019-06-15T09:38:00.733Z,20
2019-06-15T09:39:00.731Z,19
2019-06-15T09:40:00.768Z,18
2019-06-15T09:41:00.732Z,20
2019-06-15T09:42:00.735Z,18
2019-06-15T09:43:00.736Z,17
2019-06-15T09:44:00.741Z,15
2019-06-15T09:45:00.768Z,14
2019-06-15T09:46:00.734Z,13
2019-06-15T09:48:00.735Z,12
2019-06-15T09:49:00.734Z,13
2019-06-15T09:50:00.772Z,15
2019-06-15T09:51:00.737Z,16
2019-06-15T09:52:00.739Z,17
2019-06-15T09:53:00.739Z,18
2019-06-15T09:55:00.789Z,17
2019-06-15T09:56:00.742Z,16
2019-06-15T09:57:00.738Z,17
2019-06-15T10:00:00.782Z,16
2019-06-15T10:02:00.740Z,15
2019-06-15T10:03:00.738Z,13
2019-06-15T10:04:00.737Z,14
2019-06-15T10:05:00.772Z,15
2019-06-15T10:06:00.738Z,16
2019-06-15T10:08:00.739Z,18
2019-06-15T10:09:00.742Z,17
2019-06-15T10:10:00.775Z,15
2019-06-15T10:11:00.741Z,14
2019-06-15T10:12:00.742Z,15
2019-06-15T10:14:00.741Z,16
2019-06-15T10:16:00.744Z,18
2019-06-15T10:17:00.742Z,19
2019-06-15T10:18:00.769Z,18
2019-06-15T10:19:00.745Z,17
2019-06-15T10:20:00.742Z,18
2019-06-15T10:22:00.748Z,17
2019-06-15T10:24:00.744Z,16
2019-06-15T10:25:00.746Z,13
2019-06-15T10:27:00.775Z,14
2019-06-15T10:29:00.744Z,13
2019-06-15T10:30:00.743Z,15
2019-06-15T10:31:00.923Z,17
2019-06-15T10:32:00.756Z,16
2019-06-15T10:33:00.782Z,15
2019-06-15T10:34:00.749Z,17
2019-06-15T10:35:00.770Z,16
2019-06-15T10:36:00.742Z,12
2019-06-15T10:41:00.751Z,15
2019-06-15T10:42:00.744Z,18
2019-06-15T10:43:00.744Z,19
2019-06-15T10:44:00.743Z,18
2019-06-15T10:45:00.742Z,20
2019-06-15T10:46:00.742Z,21
2019-06-15T10:47:00.743Z,18
2019-06-15T10:48:00.779Z,17
2019-06-15T10:50:00.746Z,13
2019-06-15T10:52:00.747Z,15
2019-06-15T10:54:00.744Z,17
2019-06-15T10:55:00.766Z,19
2019-06-15T10:57:00.748Z,18
2019-06-15T10:58:00.743Z,19
2019-06-15T10:59:00.801Z,20
2019-06-15T11:00:00.744Z,19
2019-06-15T11:01:00.744Z,18
2019-06-15T11:02:00.747Z,19
2019-06-15T11:03:00.744Z,20
2019-06-15T11:07:00.755Z,21
2019-06-15T11:08:00.745Z,18
2019-06-15T11:10:00.778Z,17
2019-06-15T11:11:00.746Z,15
2019-06-15T11:12:00.746Z,14
2019-06-15T11:13:00.774Z,15
2019-06-15T11:14:00.809Z,16
2019-06-15T11:15:00.748Z,16
2019-06-15T11:17:00.749Z,17
2019-06-15T11:18:00.773Z,18
2019-06-15T11:19:00.752Z,16
2019-06-15T11:21:00.749Z,14
2019-06-15T11:22:00.749Z,15
2019-06-15T11:24:00.750Z,16
2019-06-15T11:26:00.747Z,18
2019-06-15T11:27:00.747Z,15
2019-06-15T11:29:00.756Z,16
2019-06-15T11:30:12.797Z,17
2019-06-15T11:31:00.749Z,18
2019-06-15T11:32:00.755Z,20
2019-06-15T11:37:00.753Z,18
2019-06-15T11:40:00.750Z,17
2019-06-15T11:41:00.782Z,18
2019-06-15T11:42:00.749Z,19
2019-06-15T11:43:00.874Z,18
2019-06-15T11:44:00.751Z,17
2019-06-15T11:45:00.754Z,17
2019-06-15T11:47:00.754Z,16
2019-06-15T11:48:00.750Z,18
2019-06-15T11:50:00.751Z,19
2019-06-15T11:51:00.756Z,20
2019-06-15T11:52:00.751Z,19
2019-06-15T11:53:00.752Z,17
2019-06-15T11:55:00.754Z,18
2019-06-15T11:57:00.780Z,17
2019-06-15T11:58:00.753Z,18
2019-06-15T12:00:00.755Z,19
2019-06-15T12:01:00.781Z,18
2019-06-15T12:02:00.757Z,20
2019-06-15T12:03:00.754Z,21
2019-06-15T12:05:00.762Z,20
2019-06-15T12:06:01.816Z,21
2019-06-15T12:07:00.755Z,18
2019-06-15T12:08:00.754Z,17
2019-06-15T12:09:00.756Z,18
2019-06-15T12:10:00.759Z,17
2019-06-15T12:11:00.789Z,18
2019-06-15T12:12:00.813Z,21
2019-06-15T12:13:00.757Z,23
2019-06-15T12:14:00.759Z,24
2019-06-15T12:15:00.766Z,23
2019-06-15T12:16:00.796Z,22
2019-06-15T12:17:00.758Z,19
2019-06-15T12:18:00.760Z,18
2019-06-15T12:19:00.759Z,16
2019-06-15T12:20:00.776Z,15
2019-06-15T12:21:00.791Z,14
2019-06-15T12:22:00.759Z,16
2019-06-15T12:23:00.758Z,14
2019-06-15T12:25:00.761Z,15
2019-06-15T12:26:00.794Z,16
2019-06-15T12:27:00.759Z,15
2019-06-15T12:28:00.758Z,17
2019-06-15T12:29:00.758Z,18
2019-06-15T12:30:00.758Z,18
2019-06-15T12:31:00.787Z,19
2019-06-15T12:32:00.787Z,20
2019-06-15T12:34:00.786Z,19
2019-06-15T12:36:00.777Z,18
2019-06-15T12:39:00.806Z,19
2019-06-15T12:40:00.759Z,18
2019-06-15T12:41:00.759Z,20
2019-06-15T12:42:00.760Z,18
2019-06-15T12:44:00.793Z,16
2019-06-15T12:45:00.785Z,16
2019-06-15T12:46:00.759Z,14
2019-06-15T12:47:00.760Z,15
2019-06-15T12:48:00.765Z,16
2019-06-15T12:49:00.792Z,18
2019-06-15T12:50:00.765Z,19
2019-06-15T12:51:00.764Z,18
2019-06-15T12:52:00.758Z,19
2019-06-15T12:53:00.765Z,18
2019-06-15T12:55:00.761Z,17
2019-06-15T12:56:00.759Z,19
2019-06-15T12:58:00.759Z,18
2019-06-15T12:59:00.758Z,17
2019-06-15T13:00:00.791Z,18
2019-06-15T13:01:03.178Z,17
2019-06-15T13:02:00.769Z,15
2019-06-15T13:03:00.758Z,16
2019-06-15T13:04:00.761Z,17
2019-06-15T13:05:00.810Z,16
2019-06-15T13:07:00.758Z,17
2019-06-15T13:11:00.904Z,18
2019-06-15T13:12:00.760Z,19
2019-06-15T13:13:00.787Z,18
2019-06-15T13:15:00.768Z,17
2019-06-15T13:17:00.759Z,18
2019-06-15T13:22:00.757Z,16
2019-06-15T13:23:00.800Z,18
2019-06-15T13:27:00.758Z,19
2019-06-15T13:28:00.786Z,16
2019-06-15T13:29:00.760Z,17
2019-06-15T13:30:00.761Z,16
2019-06-15T13:33:00.783Z,19
2019-06-15T13:38:00.785Z,17
2019-06-15T13:39:00.758Z,16
2019-06-15T13:40:00.761Z,15
2019-06-15T13:41:00.760Z,14
2019-06-15T13:42:00.760Z,16
2019-06-15T13:43:00.794Z,17
2019-06-15T13:44:00.769Z,16
2019-06-15T13:45:00.760Z,18
2019-06-15T13:47:00.761Z,17
2019-06-15T13:48:00.807Z,16
2019-06-15T13:49:00.761Z,17
2019-06-15T13:50:00.760Z,16
2019-06-15T13:52:00.761Z,15
2019-06-15T13:53:00.794Z,16
2019-06-15T13:54:00.763Z,17
2019-06-15T13:55:00.759Z,19
2019-06-15T13:57:00.763Z,18
2019-06-15T13:58:00.796Z,17
2019-06-15T13:59:00.759Z,16
2019-06-15T14:00:00.759Z,16
2019-06-15T14:01:00.842Z,17
2019-06-15T14:03:00.787Z,18
2019-06-15T14:07:00.790Z,19
2019-06-15T14:08:00.761Z,20
2019-06-15T14:09:00.762Z,19
2019-06-15T14:10:00.896Z,20
2019-06-15T14:11:00.768Z,19
2019-06-15T14:15:00.814Z,21
2019-06-15T14:16:00.758Z,20
2019-06-15T14:17:00.762Z,21
2019-06-15T14:18:00.759Z,22
2019-06-15T14:20:00.807Z,21
2019-06-15T14:21:00.761Z,22
2019-06-15T14:22:00.761Z,21
2019-06-15T14:23:00.766Z,20
2019-06-15T14:24:00.765Z,19
2019-06-15T14:26:00.765Z,18
2019-06-15T14:27:00.766Z,16
2019-06-15T14:29:00.763Z,17
2019-06-15T14:30:00.839Z,19
2019-06-15T14:32:00.782Z,20
2019-06-15T14:33:00.764Z,18
2019-06-15T14:34:00.770Z,20
2019-06-15T14:35:00.801Z,17
2019-06-15T14:36:00.765Z,18
2019-06-15T14:37:00.765Z,20
2019-06-15T14:39:00.831Z,19
2019-06-15T14:40:00.796Z,22
2019-06-15T14:41:00.763Z,20
2019-06-15T14:42:00.782Z,19
2019-06-15T14:43:00.763Z,20
2019-06-15T14:44:00.772Z,19
2019-06-15T14:45:00.797Z,17
2019-06-15T14:46:00.766Z,19
2019-06-15T14:47:00.733Z,18
2019-06-15T14:48:00.779Z,17
2019-06-15T14:49:00.768Z,18
2019-06-15T14:51:00.766Z,15
2019-06-15T14:52:00.789Z,17
2019-06-15T14:53:00.770Z,16
2019-06-15T14:54:00.766Z,18
2019-06-15T14:56:00.764Z,19
2019-06-15T14:57:00.769Z,17
2019-06-15T14:58:00.791Z,16
2019-06-15T14:59:00.767Z,15
2019-06-15T15:00:04.875Z,15
2019-06-15T15:01:00.771Z,16
2019-06-15T15:03:00.793Z,18
2019-06-15T15:05:00.771Z,19
2019-06-15T15:06:00.767Z,18
2019-06-15T15:07:00.769Z,19
2019-06-15T15:08:00.798Z,18
2019-06-15T15:11:00.772Z,19
2019-06-15T15:13:00.794Z,20
2019-06-15T15:14:00.768Z,19
2019-06-15T15:15:00.773Z,16
2019-06-15T15:16:00.771Z,17
2019-06-15T15:17:00.771Z,16
2019-06-15T15:18:00.806Z,17
2019-06-15T15:19:00.774Z,16
2019-06-15T15:21:00.772Z,15
2019-06-15T15:23:00.802Z,13
2019-06-15T15:24:00.769Z,14
2019-06-15T15:25:00.768Z,15
2019-06-15T15:26:00.772Z,14
2019-06-15T15:27:00.768Z,15
2019-06-15T15:28:00.801Z,16
2019-06-15T15:29:00.768Z,17
2019-06-15T15:30:00.769Z,16
2019-06-15T15:31:00.772Z,17
2019-06-15T15:35:00.773Z,18
2019-06-15T15:36:00.771Z,20
2019-06-15T15:37:00.773Z,21
2019-06-15T15:38:00.773Z,20
2019-06-15T15:40:00.921Z,19
2019-06-15T15:41:00.770Z,18
2019-06-15T15:42:00.773Z,17
2019-06-15T15:43:00.775Z,18
2019-06-15T15:45:00.770Z,19
2019-06-15T15:48:00.768Z,18
2019-06-15T15:50:00.767Z,17
2019-06-15T15:52:00.769Z,16
2019-06-15T15:53:00.835Z,17
2019-06-15T15:54:00.846Z,16
2019-06-15T15:57:00.769Z,15
2019-06-15T15:58:00.773Z,16
2019-06-15T15:59:00.769Z,17
2019-06-15T16:00:00.770Z,16
2019-06-15T16:02:00.773Z,17
2019-06-15T16:03:00.779Z,16
2019-06-15T16:04:00.770Z,17
2019-06-15T16:07:00.773Z,16
2019-06-15T16:08:00.774Z,17
2019-06-15T16:09:00.836Z,15
2019-06-15T16:10:00.809Z,16
2019-06-15T16:11:00.771Z,15
2019-06-15T16:12:00.771Z,16
2019-06-15T16:13:00.774Z,13
2019-06-15T16:14:00.778Z,14
2019-06-15T16:15:00.808Z,14
2019-06-15T16:16:00.776Z,15
2019-06-15T16:17:00.775Z,14
2019-06-15T16:18:00.778Z,16
2019-06-15T16:19:00.777Z,17
2019-06-15T16:21:00.774Z,18
2019-06-15T16:22:00.773Z,17
2019-06-15T16:24:00.775Z,16
2019-06-15T16:25:00.809Z,17
2019-06-15T16:28:00.772Z,16
2019-06-15T16:29:00.891Z,18
2019-06-15T16:30:00.812Z,17
2019-06-15T16:31:08.901Z,16
2019-06-15T16:32:00.778Z,17
2019-06-15T16:33:03.939Z,18
2019-06-15T16:34:00.779Z,17
2019-06-15T16:35:00.810Z,16
2019-06-15T16:36:00.774Z,15
2019-06-15T16:37:00.776Z,16
2019-06-15T16:39:00.775Z,13
2019-06-15T16:40:00.814Z,14
2019-06-15T16:44:00.776Z,16
2019-06-15T16:45:00.816Z,16
2019-06-15T16:46:00.781Z,15
2019-06-15T16:47:00.776Z,14
2019-06-15T16:48:00.801Z,13
2019-06-15T16:50:00.878Z,14
2019-06-15T16:52:00.777Z,15
2019-06-15T16:53:00.804Z,16
2019-06-15T16:55:00.781Z,15
2019-06-15T16:56:00.778Z,14
2019-06-15T16:57:00.776Z,13
2019-06-15T16:58:00.817Z,15
2019-06-15T16:59:00.781Z,16
2019-06-15T17:00:00.800Z,16
2019-06-15T17:01:00.783Z,19
2019-06-15T17:02:00.781Z,18
2019-06-15T17:03:13.877Z,17
2019-06-15T17:06:03.273Z,15
2019-06-15T17:07:00.779Z,18
2019-06-15T17:11:00.780Z,19
2019-06-15T17:12:00.789Z,18
2019-06-15T17:14:00.786Z,19
2019-06-15T17:15:00.791Z,17
2019-06-15T17:16:00.797Z,15
2019-06-15T17:17:00.815Z,17
2019-06-15T17:18:00.914Z,18
2019-06-15T17:19:00.791Z,17
2019-06-15T17:20:00.781Z,18
2019-06-15T17:23:00.840Z,17
2019-06-15T17:24:00.781Z,18
2019-06-15T17:25:00.789Z,16
2019-06-15T17:26:00.781Z,18
2019-06-15T17:27:00.782Z,17
2019-06-15T17:30:00.809Z,17
2019-06-15T17:31:00.781Z,18
2019-06-15T17:32:00.783Z,17
2019-06-15T17:33:03.878Z,16
2019-06-15T17:34:00.784Z,17
2019-06-15T17:35:00.781Z,16
2019-06-15T17:36:03.199Z,15
2019-06-15T17:37:00.808Z,17
2019-06-15T17:38:00.812Z,15
2019-06-15T17:41:00.847Z,16
2019-06-15T17:43:00.811Z,18
2019-06-15T17:45:00.791Z,19
2019-06-15T17:46:00.785Z,18
2019-06-15T17:47:00.787Z,17
2019-06-15T17:49:00.792Z,16
2019-06-15T17:51:00.792Z,17
2019-06-15T17:53:00.815Z,16
2019-06-15T17:54:00.813Z,17
2019-06-15T17:58:00.784Z,18
2019-06-15T17:59:00.821Z,17
2019-06-15T18:00:00.787Z,16
2019-06-15T18:03:00.786Z,15
2019-06-15T18:06:00.792Z,16
2019-06-15T18:07:00.792Z,15
2019-06-15T18:08:01.609Z,16
2019-06-15T18:10:00.789Z,17
2019-06-15T18:11:00.786Z,16
2019-06-15T18:14:00.816Z,15
2019-06-15T18:15:00.787Z,15
2019-06-15T18:17:00.795Z,14
2019-06-15T18:19:00.822Z,15
2019-06-15T18:20:00.787Z,17
2019-06-15T18:21:00.789Z,16
2019-06-15T18:24:00.815Z,15
2019-06-15T18:30:00.791Z,14
2019-06-15T18:31:00.793Z,15
2019-06-15T18:32:00.795Z,17
2019-06-15T18:33:00.817Z,16
2019-06-15T18:34:09.219Z,17
2019-06-15T18:35:00.792Z,18
2019-06-15T18:36:00.792Z,17
2019-06-15T18:37:00.792Z,16
2019-06-15T18:38:00.828Z,18
2019-06-15T18:39:00.798Z,17
2019-06-15T18:40:00.793Z,18
2019-06-15T18:41:01.906Z,16
2019-06-15T18:42:00.793Z,18
2019-06-15T18:43:00.828Z,16
2019-06-15T18:45:00.797Z,17
2019-06-15T18:46:00.793Z,19
2019-06-15T18:47:00.794Z,18
2019-06-15T18:48:00.833Z,19
2019-06-15T18:50:00.862Z,15
2019-06-15T18:51:00.795Z,14
2019-06-15T18:52:00.794Z,13
2019-06-15T18:53:00.833Z,14
2019-06-15T18:54:00.801Z,15
2019-06-15T18:55:00.795Z,18
2019-06-15T18:56:00.795Z,17
2019-06-15T18:57:00.820Z,18
2019-06-15T18:58:00.835Z,17
2019-06-15T18:59:00.803Z,16
2019-06-15T19:00:00.795Z,15
2019-06-15T19:02:00.796Z,16
2019-06-15T19:04:00.796Z,18
2019-06-15T19:05:00.801Z,17
2019-06-15T19:07:00.814Z,16
2019-06-15T19:10:00.800Z,17
2019-06-15T19:13:00.802Z,18
2019-06-15T19:14:00.827Z,17
2019-06-15T19:15:00.800Z,17
2019-06-15T19:17:00.800Z,15
2019-06-15T19:18:00.798Z,13
2019-06-15T19:19:00.828Z,14
2019-06-15T19:20:00.799Z,13
2019-06-15T19:21:00.803Z,15
2019-06-15T19:22:00.800Z,16
2019-06-15T19:23:00.800Z,17
2019-06-15T19:25:00.801Z,15
2019-06-15T19:29:00.806Z,14
2019-06-15T19:30:00.842Z,16
2019-06-15T19:31:00.814Z,15
2019-06-15T19:32:00.803Z,17
2019-06-15T19:35:00.831Z,16
2019-06-15T19:37:00.937Z,15
2019-06-15T19:38:01.015Z,17
2019-06-15T19:39:01.830Z,18
2019-06-15T19:40:00.829Z,16
2019-06-15T19:42:00.810Z,17
2019-06-15T19:43:00.809Z,16
2019-06-15T19:45:00.838Z,16
2019-06-15T19:46:00.814Z,17
2019-06-15T19:48:00.803Z,16
2019-06-15T19:50:00.841Z,17
2019-06-15T19:56:00.805Z,16
2019-06-15T19:57:00.806Z,15
2019-06-15T19:58:00.809Z,14
2019-06-15T19:59:00.831Z,15
2019-06-15T20:00:00.808Z,15
2019-06-15T20:01:00.831Z,17
2019-06-15T20:03:00.808Z,18
2019-06-15T20:04:00.811Z,16
2019-06-15T20:05:03.580Z,15
2019-06-15T20:06:00.844Z,14
2019-06-15T20:07:00.806Z,16
2019-06-15T20:08:00.809Z,14
2019-06-15T20:09:00.857Z,13
2019-06-15T20:11:00.841Z,14
2019-06-15T20:14:00.815Z,15